Time;durP1;ratioP1;P1;durP2;ratioP2;P2;SDS_P1;SDS_P2;PMS_P1;PMS_P2;Temp;Humidity;BMP_temperature;BMP_pressure;BME280_temperature;BME280_humidity;BME280_pressure;Samples;Min_cycle;Max_cycle;Signal;HPM_P1;HPM_P2
2023/10/25 00:01:07;;;;;;;4.40;3.57;;;;;;;;;;5012194;28;20223;-63
2023/10/25 00:03:35;;;;;;;3.67;3.37;;;;;;;;;;5011448;28;20224;-63
2023/10/25 00:06:04;;;;;;;5.00;3.90;;;;;;;;;;5015062;28;20208;-63
2023/10/25 00:08:32;;;;;;;4.00;3.60;;;;;;;;;;5011279;28;20229;-63
2023/10/25 00:11:03;;;;;;;3.97;3.47;;;;;;;;;;4999740;28;20205;-62
2023/10/25 00:13:33;;;;;;;4.20;3.87;;;;;;;;;;4999639;28;20755;-62
2023/10/25 00:16:13;;;;;;;4.40;4.00;;;;;;;;;;5004649;28;20204;-62
2023/10/25 00:18:41;;;;;;;5.33;4.10;;;;;;;;;;5019529;28;20212;-62
2023/10/25 00:21:09;;;;;;;3.97;3.50;;;;;;;;;;5019548;28;20270;-62
2023/10/25 00:23:37;;;;;;;4.47;3.83;;;;;;;;;;5019300;28;20238;-62
2023/10/25 00:26:05;;;;;;;6.20;3.57;;;;;;;;;;5013348;28;20288;-65
2023/10/25 00:28:34;;;;;;;8.93;4.43;;;;;;;;;;4999854;28;20296;-65
2023/10/25 00:31:02;;;;;;;4.33;3.97;;;;;;;;;;5018638;28;20287;-65
2023/10/25 00:33:30;;;;;;;5.73;4.73;;;;;;;;;;5006991;28;20224;-63
2023/10/25 00:35:58;;;;;;;5.27;4.40;;;;;;;;;;5018186;28;20204;-62
2023/10/25 00:38:26;;;;;;;5.57;4.50;;;;;;;;;;5018909;28;20589;-62
2023/10/25 00:40:54;;;;;;;4.50;3.90;;;;;;;;;;5017173;28;20287;-62
2023/10/25 00:43:22;;;;;;;4.83;4.30;;;;;;;;;;5017463;28;20228;-62
2023/10/25 00:46:02;;;;;;;4.47;4.07;;;;;;;;;;5017022;28;20204;-62
2023/10/25 00:48:30;;;;;;;4.60;4.20;;;;;;;;;;5018797;28;20562;-62
2023/10/25 00:50:59;;;;;;;4.37;3.97;;;;;;;;;;5017272;28;20200;-62
2023/10/25 00:53:28;;;;;;;4.20;3.80;;;;;;;;;;5018681;28;20220;-63
2023/10/25 00:55:57;;;;;;;6.37;4.20;;;;;;;;;;5017980;28;20236;-62
2023/10/25 00:58:25;;;;;;;4.73;4.23;;;;;;;;;;5016645;28;20220;-62
2023/10/25 01:00:54;;;;;;;4.87;3.93;;;;;;;;;;5012671;28;20201;-62
2023/10/25 01:03:23;;;;;;;4.93;3.70;;;;;;;;;;5004059;28;20220;-62
2023/10/25 01:05:52;;;;;;;6.23;3.70;;;;;;;;;;5013454;28;20212;-62
2023/10/25 01:08:20;;;;;;;3.43;3.23;;;;;;;;;;5018723;28;20291;-62
2023/10/25 01:10:50;;;;;;;3.80;3.50;;;;;;;;;;5016388;28;20274;-62
2023/10/25 01:13:18;;;;;;;4.53;3.30;;;;;;;;;;5017877;28;20263;-62
2023/10/25 01:15:46;;;;;;;3.67;3.30;;;;;;;;;;5016676;28;20240;-62
2023/10/25 01:18:14;;;;;;;5.30;3.77;;;;;;;;;;5017860;28;20234;-62
2023/10/25 01:20:44;;;;;;;3.50;3.23;;;;;;;;;;5016953;28;20280;-62
2023/10/25 01:23:13;;;;;;;3.83;3.50;;;;;;;;;;5017719;28;20200;-62
2023/10/25 01:25:42;;;;;;;3.40;3.10;;;;;;;;;;5017390;28;20239;-62
2023/10/25 01:28:10;;;;;;;3.33;3.03;;;;;;;;;;5014141;28;20279;-62
2023/10/25 01:30:39;;;;;;;3.63;3.13;;;;;;;;;;5007510;28;20211;-62
2023/10/25 01:33:08;;;;;;;3.50;3.00;;;;;;;;;;5016182;28;20291;-62
2023/10/25 01:35:36;;;;;;;3.00;2.80;;;;;;;;;;5017492;28;20551;-63
2023/10/25 01:38:04;;;;;;;4.17;3.00;;;;;;;;;;5017887;28;20314;-62
2023/10/25 01:40:33;;;;;;;3.53;2.77;;;;;;;;;;5016439;28;20204;-62
2023/10/25 01:43:01;;;;;;;3.03;2.77;;;;;;;;;;5004697;28;20299;-62
2023/10/25 01:45:30;;;;;;;3.40;3.10;;;;;;;;;;5005124;28;20201;-62
2023/10/25 01:47:58;;;;;;;4.97;2.83;;;;;;;;;;5016568;28;20307;-63
2023/10/25 01:50:26;;;;;;;4.87;3.10;;;;;;;;;;5016650;28;20204;-63
2023/10/25 01:52:54;;;;;;;2.30;2.10;;;;;;;;;;5017661;28;20214;-62
2023/10/25 01:55:21;;;;;;;2.80;2.50;;;;;;;;;;5008471;28;20288;-62
2023/10/25 01:57:51;;;;;;;2.97;2.33;;;;;;;;;;5017577;28;20702;-62
2023/10/25 02:00:19;;;;;;;2.40;2.20;;;;;;;;;;5011612;28;20564;-63
2023/10/25 02:02:49;;;;;;;2.77;2.40;;;;;;;;;;5003476;28;20205;-62
2023/10/25 02:05:17;;;;;;;2.50;2.00;;;;;;;;;;5007064;28;20702;-63
2023/10/25 02:07:45;;;;;;;3.10;2.90;;;;;;;;;;5017602;28;20571;-63
2023/10/25 02:10:13;;;;;;;2.20;2.10;;;;;;;;;;5016135;28;20228;-63
2023/10/25 02:12:41;;;;;;;2.43;2.30;;;;;;;;;;5006986;28;20222;-63
2023/10/25 02:15:11;;;;;;;2.13;2.03;;;;;;;;;;5016595;28;20266;-62
2023/10/25 02:17:38;;;;;;;2.30;2.03;;;;;;;;;;5014608;28;20266;-62
2023/10/25 02:20:07;;;;;;;1.90;1.73;;;;;;;;;;5013573;28;20262;-63
2023/10/25 02:22:35;;;;;;;2.83;1.70;;;;;;;;;;4998192;28;20239;-63
2023/10/25 02:25:03;;;;;;;3.80;2.00;;;;;;;;;;4997459;28;20665;-63
2023/10/25 02:27:31;;;;;;;2.20;2.00;;;;;;;;;;5000400;28;20209;-63
2023/10/25 02:29:59;;;;;;;1.90;1.80;;;;;;;;;;5011276;28;20231;-63
2023/10/25 02:32:28;;;;;;;2.13;1.60;;;;;;;;;;5009264;28;20288;-63
2023/10/25 02:34:56;;;;;;;1.93;1.67;;;;;;;;;;5011942;28;20584;-63
2023/10/25 02:37:24;;;;;;;1.93;1.83;;;;;;;;;;5016668;28;20208;-63
2023/10/25 02:39:52;;;;;;;2.10;1.70;;;;;;;;;;5016514;28;20268;-63
2023/10/25 02:42:20;;;;;;;2.20;1.63;;;;;;;;;;5019520;28;20352;-63
2023/10/25 02:44:48;;;;;;;2.60;1.40;;;;;;;;;;5020630;28;20220;-63
2023/10/25 02:47:16;;;;;;;1.50;1.10;;;;;;;;;;5019712;28;20259;-63
2023/10/25 02:49:46;;;;;;;1.57;1.43;;;;;;;;;;5018662;28;20291;-63
2023/10/25 02:52:14;;;;;;;2.10;1.30;;;;;;;;;;5020175;28;20260;-63
2023/10/25 02:54:42;;;;;;;2.47;1.60;;;;;;;;;;5019710;28;20671;-63
2023/10/25 02:57:10;;;;;;;1.73;1.60;;;;;;;;;;5020910;28;20239;-63
2023/10/25 02:59:38;;;;;;;1.40;1.30;;;;;;;;;;5019784;28;20693;-63
2023/10/25 03:02:06;;;;;;;4.00;1.10;;;;;;;;;;5017444;28;20266;-63
2023/10/25 03:04:34;;;;;;;1.60;1.47;;;;;;;;;;5005037;28;20564;-63
2023/10/25 03:07:03;;;;;;;1.37;1.27;;;;;;;;;;5020320;28;20215;-63
2023/10/25 03:09:31;;;;;;;1.70;1.60;;;;;;;;;;5008107;28;20204;-64
2023/10/25 03:11:59;;;;;;;1.13;1.13;;;;;;;;;;5016589;28;20731;-64
2023/10/25 03:14:27;;;;;;;2.43;1.50;;;;;;;;;;5019823;28;20252;-64
2023/10/25 03:16:55;;;;;;;1.20;1.20;;;;;;;;;;5020911;28;20275;-64
2023/10/25 03:19:23;;;;;;;1.60;1.50;;;;;;;;;;5019160;28;20231;-64
2023/10/25 03:21:51;;;;;;;2.83;1.63;;;;;;;;;;5017429;28;20729;-63
2023/10/25 03:24:20;;;;;;;1.50;1.40;;;;;;;;;;5019681;28;20729;-63
2023/10/25 03:26:48;;;;;;;1.87;1.20;;;;;;;;;;5020563;28;20208;-64
2023/10/25 03:29:16;;;;;;;2.00;1.77;;;;;;;;;;5017295;28;20207;-64
2023/10/25 03:31:44;;;;;;;2.87;1.10;;;;;;;;;;5014399;28;20268;-64
2023/10/25 03:34:13;;;;;;;2.47;1.40;;;;;;;;;;5011109;28;20239;-64
2023/10/25 03:40:05;;;;;;;2.77;2.63;;;;;;;;;;5005460;28;20224;-64
2023/10/25 03:42:33;;;;;;;1.33;1.10;;;;;;;;;;5020283;28;20204;-63
2023/10/25 03:45:01;;;;;;;1.20;1.17;;;;;;;;;;5019561;28;20250;-63
2023/10/25 03:47:29;;;;;;;1.43;1.30;;;;;;;;;;5020469;28;20212;-63
2023/10/25 03:49:57;;;;;;;1.40;1.30;;;;;;;;;;5019411;28;20200;-63
2023/10/25 03:52:25;;;;;;;1.47;1.10;;;;;;;;;;5014258;28;20204;-63
2023/10/25 03:54:53;;;;;;;1.47;1.37;;;;;;;;;;5008040;28;20290;-63
2023/10/25 03:57:23;;;;;;;1.80;1.27;;;;;;;;;;5019606;28;20286;-63
2023/10/25 03:59:51;;;;;;;1.73;1.50;;;;;;;;;;5015318;28;20221;-63
2023/10/25 04:02:19;;;;;;;3.10;1.40;;;;;;;;;;5001766;28;20263;-63
2023/10/25 04:04:48;;;;;;;2.83;1.57;;;;;;;;;;5018240;28;20220;-64
2023/10/25 04:07:16;;;;;;;3.20;1.50;;;;;;;;;;5019780;28;20221;-63
2023/10/25 04:09:44;;;;;;;1.70;1.47;;;;;;;;;;5015610;28;20625;-63
2023/10/25 04:12:13;;;;;;;2.03;1.20;;;;;;;;;;5010541;28;20208;-64
2023/10/25 04:14:45;;;;;;;2.70;1.53;;;;;;;;;;5019354;28;20279;-63
2023/10/25 04:17:13;;;;;;;1.10;1.10;;;;;;;;;;5008940;28;20247;-63
2023/10/25 04:19:41;;;;;;;1.60;1.50;;;;;;;;;;5019181;28;20294;-63
2023/10/25 04:22:13;;;;;;;3.17;1.27;;;;;;;;;;5019640;28;20212;-64
2023/10/25 04:24:50;;;;;;;3.37;1.37;;;;;;;;;;5019183;28;20264;-63
2023/10/25 04:27:18;;;;;;;1.53;1.30;;;;;;;;;;5017769;28;20639;-63
2023/10/25 04:29:48;;;;;;;1.23;1.13;;;;;;;;;;5011904;28;20204;-63
2023/10/25 04:32:16;;;;;;;1.23;1.17;;;;;;;;;;5010377;28;20209;-63
2023/10/25 04:34:44;;;;;;;3.07;1.20;;;;;;;;;;5005245;28;20246;-63
2023/10/25 04:40:40;;;;;;;0.90;0.90;;;;;;;;;;5012549;28;20186;-63
2023/10/25 04:43:08;;;;;;;0.90;0.90;;;;;;;;;;5018907;28;20243;-63
2023/10/25 04:45:38;;;;;;;1.10;1.00;;;;;;;;;;5018381;28;20200;-63
2023/10/25 04:48:06;;;;;;;1.17;1.17;;;;;;;;;;5018961;28;20299;-63
2023/10/25 04:50:36;;;;;;;1.27;1.13;;;;;;;;;;5017357;28;20227;-63
2023/10/25 04:53:07;;;;;;;2.50;1.00;;;;;;;;;;5018054;28;20231;-63
2023/10/25 04:55:37;;;;;;;1.27;1.03;;;;;;;;;;5016717;28;20634;-63
2023/10/25 04:58:05;;;;;;;2.10;1.40;;;;;;;;;;5015387;28;20287;-63
2023/10/25 05:00:33;;;;;;;3.83;1.20;;;;;;;;;;5012328;28;20286;-63
2023/10/25 05:03:05;;;;;;;1.57;1.30;;;;;;;;;;5011056;28;20209;-63
2023/10/25 05:05:37;;;;;;;2.17;1.10;;;;;;;;;;5011451;28;20205;-63
2023/10/25 05:08:08;;;;;;;0.90;0.90;;;;;;;;;;5018706;28;20290;-63
2023/10/25 05:10:37;;;;;;;1.43;1.33;;;;;;;;;;5016525;28;20279;-63
2023/10/25 05:13:05;;;;;;;1.27;1.17;;;;;;;;;;5018038;28;20208;-63
2023/10/25 05:15:35;;;;;;;1.80;1.53;;;;;;;;;;5017673;28;20200;-63
2023/10/25 05:18:05;;;;;;;1.57;1.30;;;;;;;;;;5018247;28;20684;-63
2023/10/25 05:20:34;;;;;;;1.27;1.17;;;;;;;;;;5014988;28;20695;-63
2023/10/25 05:23:04;;;;;;;1.60;1.20;;;;;;;;;;5012820;28;20211;-63
2023/10/25 05:25:32;;;;;;;1.57;1.30;;;;;;;;;;5011349;28;20228;-63
2023/10/25 05:28:01;;;;;;;1.67;1.53;;;;;;;;;;5014407;28;20200;-63
2023/10/25 05:40:39;;;;;;;2.23;1.03;;;;;;;;;;5004463;28;20278;-63
2023/10/25 05:43:09;;;;;;;2.60;1.00;;;;;;;;;;5009416;28;20208;-63
2023/10/25 05:45:38;;;;;;;1.80;1.10;;;;;;;;;;5018041;28;20208;-63
2023/10/25 05:48:09;;;;;;;1.10;1.10;;;;;;;;;;5017758;28;20263;-63
2023/10/25 05:54:00;;;;;;;4.00;1.10;;;;;;;;;;5003839;28;20267;-62
2023/10/25 05:56:30;;;;;;;5.20;1.30;;;;;;;;;;5017545;28;20267;-62
2023/10/25 05:58:58;;;;;;;1.20;1.10;;;;;;;;;;5011826;28;20303;-62
2023/10/25 06:01:28;;;;;;;2.00;1.03;;;;;;;;;;5022769;28;20243;-63
2023/10/25 06:03:58;;;;;;;1.07;1.07;;;;;;;;;;5003279;28;20252;-62
2023/10/25 06:06:30;;;;;;;2.53;1.63;;;;;;;;;;5002336;28;20239;-63
2023/10/25 06:09:15;;;;;;;0.90;0.90;;;;;;;;;;4997903;28;20204;-63
2023/10/25 06:11:46;;;;;;;3.03;1.20;;;;;;;;;;4999483;28;20582;-63
2023/10/25 06:14:18;;;;;;;1.53;1.07;;;;;;;;;;5005765;28;20272;-63
2023/10/25 06:16:46;;;;;;;0.97;0.90;;;;;;;;;;5002254;28;20215;-63
2023/10/25 06:19:15;;;;;;;1.63;1.00;;;;;;;;;;5002103;28;20239;-63
2023/10/25 06:21:43;;;;;;;1.13;0.90;;;;;;;;;;5001950;28;20212;-63
2023/10/25 06:24:11;;;;;;;1.23;1.10;;;;;;;;;;5000682;28;20221;-64
2023/10/25 06:27:16;;;;;;;0.90;0.90;;;;;;;;;;5007794;28;20279;-63
2023/10/25 06:29:52;;;;;;;0.93;0.87;;;;;;;;;;5010708;28;20204;-63
2023/10/25 06:35:52;;;;;;;2.23;1.20;;;;;;;;;;5009015;28;20183;-64
2023/10/25 06:38:21;;;;;;;2.43;1.90;;;;;;;;;;5020669;28;20207;-64
2023/10/25 06:40:52;;;;;;;1.93;1.00;;;;;;;;;;5019918;28;20228;-64
2023/10/25 06:43:29;;;;;;;0.90;0.90;;;;;;;;;;5021271;28;20262;-64
2023/10/25 06:46:03;;;;;;;1.20;1.10;;;;;;;;;;5011073;28;20850;-65
2023/10/25 06:48:34;;;;;;;1.70;1.10;;;;;;;;;;5003433;28;20709;-65
2023/10/25 06:51:03;;;;;;;1.63;1.20;;;;;;;;;;5015438;28;20726;-65
2023/10/25 06:53:31;;;;;;;3.17;1.27;;;;;;;;;;5013946;28;20225;-65
2023/10/25 06:56:00;;;;;;;1.20;1.00;;;;;;;;;;5007947;28;20232;-65
2023/10/25 06:58:28;;;;;;;2.23;0.90;;;;;;;;;;5020610;28;20567;-65
2023/10/25 07:00:57;;;;;;;1.57;1.00;;;;;;;;;;5031987;28;20316;-64
2023/10/25 07:06:55;;;;;;;2.30;0.90;;;;;;;;;;5034218;28;20250;-64
2023/10/25 07:09:24;;;;;;;1.23;1.00;;;;;;;;;;5040216;28;20207;-65
2023/10/25 07:11:52;;;;;;;3.90;1.33;;;;;;;;;;5040126;28;20215;-64
2023/10/25 07:14:20;;;;;;;2.43;1.07;;;;;;;;;;5026259;28;20224;-65
2023/10/25 07:16:48;;;;;;;3.27;1.00;;;;;;;;;;5038953;28;20215;-65
2023/10/25 07:19:17;;;;;;;3.50;1.37;;;;;;;;;;5023911;28;20199;-65
2023/10/25 07:21:45;;;;;;;3.80;1.13;;;;;;;;;;5039862;28;20289;-65
2023/10/25 07:24:15;;;;;;;1.03;0.93;;;;;;;;;;5040241;28;20267;-65
2023/10/25 07:26:43;;;;;;;1.50;1.17;;;;;;;;;;5039629;28;20211;-64
2023/10/25 07:29:11;;;;;;;1.23;0.80;;;;;;;;;;5039993;28;20281;-65
2023/10/25 07:31:40;;;;;;;3.40;1.37;;;;;;;;;;5031318;28;20200;-65
2023/10/25 07:34:08;;;;;;;1.03;0.93;;;;;;;;;;5034069;28;20227;-64
2023/10/25 07:36:36;;;;;;;1.27;0.90;;;;;;;;;;5040081;28;20207;-64
2023/10/25 07:39:04;;;;;;;4.67;0.93;;;;;;;;;;5038335;28;20200;-65
2023/10/25 07:41:34;;;;;;;1.77;1.00;;;;;;;;;;5027833;28;20292;-65
2023/10/25 07:44:02;;;;;;;1.10;1.00;;;;;;;;;;5020272;28;20251;-65
2023/10/25 07:46:30;;;;;;;1.20;1.00;;;;;;;;;;5020295;28;20223;-64
2023/10/25 07:48:59;;;;;;;1.27;0.90;;;;;;;;;;5025220;28;20210;-64
2023/10/25 07:51:27;;;;;;;0.97;0.80;;;;;;;;;;5026716;28;20254;-64
2023/10/25 07:53:55;;;;;;;1.83;1.10;;;;;;;;;;5023053;28;20232;-66
2023/10/25 07:56:24;;;;;;;0.87;0.80;;;;;;;;;;5023944;28;20237;-66
2023/10/25 07:59:14;;;;;;;2.20;0.90;;;;;;;;;;5003478;28;20236;-64
2023/10/25 08:01:45;;;;;;;3.17;1.30;;;;;;;;;;4999874;28;20314;-64
2023/10/25 08:04:13;;;;;;;1.83;1.33;;;;;;;;;;5014674;28;20691;-64
2023/10/25 08:06:43;;;;;;;0.87;0.80;;;;;;;;;;5019520;28;20216;-64
2023/10/25 08:09:11;;;;;;;2.27;1.13;;;;;;;;;;5019749;28;20259;-64
2023/10/25 08:11:39;;;;;;;1.97;1.00;;;;;;;;;;5019387;28;20219;-64
2023/10/25 08:14:07;;;;;;;2.23;1.00;;;;;;;;;;5019716;28;20235;-64
2023/10/25 08:16:39;;;;;;;1.03;0.97;;;;;;;;;;5014815;28;20204;-64
2023/10/25 08:19:08;;;;;;;1.27;0.97;;;;;;;;;;5019435;28;20208;-66
2023/10/25 08:21:36;;;;;;;2.87;1.10;;;;;;;;;;5019283;28;20232;-66
2023/10/25 08:24:05;;;;;;;2.23;1.03;;;;;;;;;;5019240;28;20232;-64
2023/10/25 08:26:37;;;;;;;2.83;1.20;;;;;;;;;;5019438;28;20209;-64
2023/10/25 08:29:06;;;;;;;1.80;1.13;;;;;;;;;;5019298;28;20303;-64
2023/10/25 08:31:35;;;;;;;1.73;1.20;;;;;;;;;;5013769;28;20255;-64
2023/10/25 08:34:05;;;;;;;3.67;1.20;;;;;;;;;;4999453;28;20308;-64
2023/10/25 08:36:35;;;;;;;2.37;0.93;;;;;;;;;;4999519;28;20653;-64
2023/10/25 08:39:04;;;;;;;2.67;1.03;;;;;;;;;;4999052;28;20559;-64
2023/10/25 08:41:34;;;;;;;1.87;0.90;;;;;;;;;;5004973;28;20236;-64
2023/10/25 08:44:03;;;;;;;2.40;0.90;;;;;;;;;;4999485;28;20229;-64
2023/10/25 08:46:32;;;;;;;2.20;0.80;;;;;;;;;;5007068;28;20213;-65
2023/10/25 08:49:00;;;;;;;1.57;0.90;;;;;;;;;;4999529;28;20213;-64
2023/10/25 08:51:30;;;;;;;3.77;0.73;;;;;;;;;;5010961;28;20209;-66
2023/10/25 08:54:00;;;;;;;0.80;0.80;;;;;;;;;;5011017;28;20708;-66
2023/10/25 08:56:28;;;;;;;2.67;0.80;;;;;;;;;;5006648;28;20248;-66
2023/10/25 08:58:58;;;;;;;0.80;0.80;;;;;;;;;;5023657;28;20231;-64
2023/10/25 09:01:27;;;;;;;1.50;0.90;;;;;;;;;;5031711;28;20679;-66
2023/10/25 09:03:56;;;;;;;0.67;0.67;;;;;;;;;;5037475;28;20315;-66
2023/10/25 09:06:24;;;;;;;0.87;0.77;;;;;;;;;;5034661;28;20195;-66
2023/10/25 09:09:02;;;;;;;1.10;1.00;;;;;;;;;;5018395;28;20204;-66
2023/10/25 09:11:49;;;;;;;1.77;0.90;;;;;;;;;;5018685;28;20208;-66
2023/10/25 09:14:18;;;;;;;1.77;0.80;;;;;;;;;;5018294;28;20702;-66
2023/10/25 09:16:47;;;;;;;1.90;1.03;;;;;;;;;;5018406;28;20219;-66
2023/10/25 09:19:19;;;;;;;4.33;1.03;;;;;;;;;;5021918;28;20290;-66
2023/10/25 09:21:47;;;;;;;1.23;0.90;;;;;;;;;;5018447;28;20234;-66
2023/10/25 09:24:17;;;;;;;1.47;0.90;;;;;;;;;;5017777;28;20749;-66
2023/10/25 09:26:46;;;;;;;3.43;1.10;;;;;;;;;;5018356;28;20616;-66
2023/10/25 09:29:25;;;;;;;1.20;0.57;;;;;;;;;;5018191;28;20742;-66
2023/10/25 09:32:06;;;;;;;0.87;0.80;;;;;;;;;;5018472;28;20280;-66
2023/10/25 09:34:35;;;;;;;1.10;0.73;;;;;;;;;;5018625;28;20232;-66
2023/10/25 09:37:04;;;;;;;1.00;0.87;;;;;;;;;;5020369;28;20208;-66
2023/10/25 09:39:35;;;;;;;3.23;0.80;;;;;;;;;;5018093;28;20208;-66
2023/10/25 09:42:05;;;;;;;0.50;0.50;;;;;;;;;;5023277;28;20714;-66
2023/10/25 09:44:37;;;;;;;2.10;0.80;;;;;;;;;;5018083;28;20259;-66
2023/10/25 09:47:09;;;;;;;2.27;0.80;;;;;;;;;;5018053;28;20208;-66
2023/10/25 09:49:41;;;;;;;9.93;1.63;;;;;;;;;;5017563;28;20283;-66
2023/10/25 09:52:12;;;;;;;3.43;1.00;;;;;;;;;;5018006;28;20231;-66
2023/10/25 09:54:47;;;;;;;0.97;0.80;;;;;;;;;;5026029;28;20232;-66
2023/10/25 09:57:16;;;;;;;4.57;0.80;;;;;;;;;;5017545;28;20312;-66
2023/10/25 09:59:44;;;;;;;0.70;0.70;;;;;;;;;;5017887;28;20205;-66
2023/10/25 10:02:17;;;;;;;0.67;0.67;;;;;;;;;;5028328;28;20227;-66
2023/10/25 10:04:48;;;;;;;0.40;0.40;;;;;;;;;;5025796;28;20232;-66
2023/10/25 10:07:23;;;;;;;1.10;0.60;;;;;;;;;;5017664;28;20205;-66
2023/10/25 10:09:54;;;;;;;3.83;0.80;;;;;;;;;;5019925;28;20669;-66
2023/10/25 10:12:22;;;;;;;2.40;1.00;;;;;;;;;;5017924;28;20206;-66
2023/10/25 10:14:52;;;;;;;0.93;0.70;;;;;;;;;;5017793;28;20235;-66
2023/10/25 10:17:20;;;;;;;2.43;0.60;;;;;;;;;;5017173;28;20295;-66
2023/10/25 10:19:50;;;;;;;2.33;0.83;;;;;;;;;;5030103;28;20202;-66
2023/10/25 10:22:19;;;;;;;0.57;0.57;;;;;;;;;;5027854;28;20223;-66
2023/10/25 10:24:48;;;;;;;1.27;0.70;;;;;;;;;;5027433;28;20226;-66
2023/10/25 10:27:19;;;;;;;0.93;0.80;;;;;;;;;;5029406;28;20234;-65
2023/10/25 10:29:47;;;;;;;0.50;0.50;;;;;;;;;;5015932;28;20287;-65
2023/10/25 10:32:16;;;;;;;0.60;0.60;;;;;;;;;;5025571;28;20584;-66
2023/10/25 10:34:46;;;;;;;0.47;0.47;;;;;;;;;;5027748;28;20227;-65
2023/10/25 10:37:16;;;;;;;0.63;0.63;;;;;;;;;;5026637;28;20658;-65
2023/10/25 10:39:59;;;;;;;16.07;4.00;;;;;;;;;;5026146;28;20206;-66
2023/10/25 10:42:34;;;;;;;33.67;5.93;;;;;;;;;;5013046;28;20224;-65
2023/10/25 10:45:03;;;;;;;20.87;5.10;;;;;;;;;;5025973;28;20583;-65
2023/10/25 10:47:37;;;;;;;3.03;1.20;;;;;;;;;;5028012;28;20305;-65
2023/10/25 10:50:09;;;;;;;1.57;0.90;;;;;;;;;;5028745;28;20202;-66
2023/10/25 10:52:37;;;;;;;1.53;0.97;;;;;;;;;;5027925;28;20239;-65
2023/10/25 10:55:10;;;;;;;1.90;0.80;;;;;;;;;;5028031;28;20228;-66
2023/10/25 10:57:39;;;;;;;1.40;0.80;;;;;;;;;;5008669;28;20233;-65
2023/10/25 11:00:28;;;;;;;1.00;0.80;;;;;;;;;;5007422;28;20236;-65
2023/10/25 11:02:56;;;;;;;0.70;0.70;;;;;;;;;;5010745;28;20231;-65
2023/10/25 11:05:25;;;;;;;44.90;4.67;;;;;;;;;;5010452;28;20272;-65
2023/10/25 11:07:54;;;;;;;0.63;0.63;;;;;;;;;;5005988;28;20200;-65
2023/10/25 11:10:22;;;;;;;2.37;0.70;;;;;;;;;;5004213;28;20685;-65
2023/10/25 11:12:52;;;;;;;1.87;0.73;;;;;;;;;;5005764;28;20216;-65
2023/10/25 11:15:24;;;;;;;1.27;0.60;;;;;;;;;;5020628;28;20232;-65
2023/10/25 11:17:52;;;;;;;1.70;0.60;;;;;;;;;;5016803;28;20714;-66
2023/10/25 11:20:21;;;;;;;1.80;0.50;;;;;;;;;;5012105;28;20207;-65
2023/10/25 11:22:49;;;;;;;2.43;1.20;;;;;;;;;;5004345;28;20402;-66
2023/10/25 11:25:20;;;;;;;2.40;0.60;;;;;;;;;;5006038;28;20227;-66
2023/10/25 11:27:48;;;;;;;0.50;0.50;;;;;;;;;;5010510;28;20682;-66
2023/10/25 11:30:18;;;;;;;1.67;0.90;;;;;;;;;;5008447;28;20208;-66
2023/10/25 11:32:48;;;;;;;0.97;0.60;;;;;;;;;;5008787;28;20206;-65
2023/10/25 11:35:23;;;;;;;0.90;0.60;;;;;;;;;;5005599;28;20232;-65
2023/10/25 11:37:52;;;;;;;0.60;0.50;;;;;;;;;;5017407;28;20212;-66
2023/10/25 11:40:21;;;;;;;0.87;0.63;;;;;;;;;;5014044;28;20215;-65
2023/10/25 11:42:50;;;;;;;1.37;0.50;;;;;;;;;;5010820;28;20282;-66
2023/10/25 11:45:19;;;;;;;0.60;0.60;;;;;;;;;;5020129;28;20243;-66
2023/10/25 11:47:49;;;;;;;1.53;0.50;;;;;;;;;;5002630;28;20255;-65
2023/10/25 11:50:17;;;;;;;1.90;0.80;;;;;;;;;;5019886;28;20227;-66
2023/10/25 11:52:45;;;;;;;1.60;0.57;;;;;;;;;;5013873;28;20214;-66
2023/10/25 11:55:13;;;;;;;1.23;0.70;;;;;;;;;;5000098;28;20240;-67
2023/10/25 11:57:43;;;;;;;0.60;0.47;;;;;;;;;;5018038;28;20247;-66
2023/10/25 12:00:11;;;;;;;2.93;0.60;;;;;;;;;;5039169;28;20208;-66
2023/10/25 12:02:41;;;;;;;0.50;0.40;;;;;;;;;;5023734;28;20223;-67
2023/10/25 12:05:10;;;;;;;5.87;0.80;;;;;;;;;;5035904;28;20230;-67
2023/10/25 12:07:38;;;;;;;0.90;0.50;;;;;;;;;;5030887;28;20204;-67
2023/10/25 12:10:06;;;;;;;1.43;0.90;;;;;;;;;;5036904;28;20682;-67
2023/10/25 12:12:35;;;;;;;0.80;0.63;;;;;;;;;;5019054;28;20328;-67
2023/10/25 12:15:09;;;;;;;1.13;0.87;;;;;;;;;;5019319;28;20235;-64
2023/10/25 12:17:50;;;;;;;0.77;0.50;;;;;;;;;;5026476;28;20208;-64
2023/10/25 12:20:34;;;;;;;0.73;0.60;;;;;;;;;;5019152;28;20215;-64
2023/10/25 12:23:03;;;;;;;1.33;0.60;;;;;;;;;;5019010;28;20227;-64
2023/10/25 12:25:33;;;;;;;3.17;0.70;;;;;;;;;;5028426;28;20658;-66
2023/10/25 12:28:01;;;;;;;2.83;1.00;;;;;;;;;;5019273;28;20219;-66
2023/10/25 12:30:29;;;;;;;0.83;0.80;;;;;;;;;;5019005;28;20205;-65
2023/10/25 12:32:57;;;;;;;1.80;0.57;;;;;;;;;;5035901;28;20207;-65
2023/10/25 12:35:26;;;;;;;0.90;0.80;;;;;;;;;;5033015;28;20227;-66
2023/10/25 12:38:11;;;;;;;0.50;0.50;;;;;;;;;;5018729;28;20215;-66
2023/10/25 12:40:41;;;;;;;0.93;0.50;;;;;;;;;;5029015;28;20203;-67
2023/10/25 12:43:10;;;;;;;1.13;0.57;;;;;;;;;;5034304;28;20216;-66
2023/10/25 12:45:38;;;;;;;0.50;0.50;;;;;;;;;;5038541;28;20651;-66
2023/10/25 12:48:06;;;;;;;1.83;1.00;;;;;;;;;;5038602;28;20235;-66
2023/10/25 12:50:52;;;;;;;2.13;0.90;;;;;;;;;;5038384;28;20215;-66
2023/10/25 12:53:22;;;;;;;1.00;0.70;;;;;;;;;;5018511;28;20220;-66
2023/10/25 12:55:50;;;;;;;1.50;0.50;;;;;;;;;;5031341;28;20223;-66
2023/10/25 12:58:18;;;;;;;0.50;0.50;;;;;;;;;;5038387;28;20215;-66
2023/10/25 13:00:48;;;;;;;0.43;0.43;;;;;;;;;;5024515;28;20212;-66
2023/10/25 13:03:21;;;;;;;1.40;0.70;;;;;;;;;;5027784;28;20250;-68
2023/10/25 13:06:04;;;;;;;2.07;1.00;;;;;;;;;;5025968;28;20293;-68
2023/10/25 13:08:39;;;;;;;1.10;1.00;;;;;;;;;;5031776;28;20212;-67
2023/10/25 13:11:08;;;;;;;3.13;1.00;;;;;;;;;;5018702;28;20298;-67
2023/10/25 13:13:37;;;;;;;2.07;0.80;;;;;;;;;;5018256;28;20224;-68
2023/10/25 13:16:06;;;;;;;1.23;0.60;;;;;;;;;;5021017;28;20207;-68
2023/10/25 13:18:36;;;;;;;0.63;0.60;;;;;;;;;;5037676;28;20207;-68
2023/10/25 13:21:05;;;;;;;1.77;1.10;;;;;;;;;;5037934;28;20208;-68
2023/10/25 13:23:37;;;;;;;2.00;0.83;;;;;;;;;;5037593;28;20231;-68
2023/10/25 13:26:08;;;;;;;1.97;1.00;;;;;;;;;;5029267;28;20616;-68
2023/10/25 13:28:37;;;;;;;2.30;0.80;;;;;;;;;;5028665;28;20200;-68
2023/10/25 13:31:08;;;;;;;1.33;0.80;;;;;;;;;;5030035;28;20207;-67
2023/10/25 13:33:39;;;;;;;5.47;0.80;;;;;;;;;;5032288;28;20216;-68
2023/10/25 13:36:08;;;;;;;2.73;0.80;;;;;;;;;;5019380;28;20287;-68
2023/10/25 13:38:42;;;;;;;0.67;0.50;;;;;;;;;;5021233;28;20282;-67
2023/10/25 13:41:16;;;;;;;1.70;0.60;;;;;;;;;;5027781;28;20206;-68
2023/10/25 13:43:54;;;;;;;0.83;0.60;;;;;;;;;;5021266;28;20223;-68
2023/10/25 13:46:23;;;;;;;0.70;0.70;;;;;;;;;;5017939;28;20299;-68
2023/10/25 13:48:51;;;;;;;0.70;0.60;;;;;;;;;;5017676;28;20216;-66
2023/10/25 13:51:19;;;;;;;1.07;0.60;;;;;;;;;;5024840;28;20204;-66
2023/10/25 13:53:49;;;;;;;0.90;0.60;;;;;;;;;;5028462;28;20220;-66
2023/10/25 13:56:19;;;;;;;2.80;1.00;;;;;;;;;;5027834;28;20240;-66
2023/10/25 13:58:47;;;;;;;0.80;0.70;;;;;;;;;;5026395;28;20235;-66
2023/10/25 14:01:15;;;;;;;3.40;0.93;;;;;;;;;;5027387;28;20229;-66
2023/10/25 14:03:43;;;;;;;3.30;0.73;;;;;;;;;;5026601;28;20262;-66
2023/10/25 14:06:15;;;;;;;1.83;0.83;;;;;;;;;;5024975;28;20208;-66
2023/10/25 14:08:44;;;;;;;0.80;0.80;;;;;;;;;;5029891;28;20210;-66
2023/10/25 14:11:14;;;;;;;1.50;0.77;;;;;;;;;;5027058;28;20634;-66
2023/10/25 14:13:42;;;;;;;1.60;0.80;;;;;;;;;;5026367;28;20717;-66
2023/10/25 14:16:10;;;;;;;1.23;0.90;;;;;;;;;;5027744;28;20199;-66
2023/10/25 14:18:39;;;;;;;2.43;1.00;;;;;;;;;;5028661;28;20635;-66
2023/10/25 14:21:09;;;;;;;0.77;0.77;;;;;;;;;;5028475;28;20201;-66
2023/10/25 14:23:40;;;;;;;1.63;0.83;;;;;;;;;;5025677;28;20239;-66
2023/10/25 14:26:08;;;;;;;2.07;0.90;;;;;;;;;;5028938;28;20199;-66
2023/10/25 14:28:38;;;;;;;0.83;0.77;;;;;;;;;;5027975;28;20203;-66
2023/10/25 14:31:06;;;;;;;1.10;1.00;;;;;;;;;;5028490;28;20204;-67
2023/10/25 14:33:34;;;;;;;3.17;0.90;;;;;;;;;;5027033;28;20789;-66
2023/10/25 14:36:03;;;;;;;2.37;0.90;;;;;;;;;;5027913;28;20202;-66
2023/10/25 14:38:31;;;;;;;3.73;0.90;;;;;;;;;;5033820;28;20208;-66
2023/10/25 14:41:00;;;;;;;2.10;0.97;;;;;;;;;;5037949;28;20204;-66
2023/10/25 14:43:28;;;;;;;5.90;1.50;;;;;;;;;;5036891;28;20281;-68
2023/10/25 14:45:58;;;;;;;1.23;0.80;;;;;;;;;;5029796;28;20669;-66
2023/10/25 14:48:26;;;;;;;2.30;1.00;;;;;;;;;;5032538;28;20199;-67
2023/10/25 14:50:55;;;;;;;2.03;0.90;;;;;;;;;;5029864;28;20206;-66
2023/10/25 14:53:26;;;;;;;3.23;1.20;;;;;;;;;;5031287;28;20224;-66
2023/10/25 14:55:55;;;;;;;1.43;1.30;;;;;;;;;;5031478;28;20262;-66
2023/10/25 14:58:23;;;;;;;1.23;1.13;;;;;;;;;;5028988;28;20663;-66
2023/10/25 15:00:51;;;;;;;1.30;1.20;;;;;;;;;;5034438;28;20199;-66
2023/10/25 15:03:22;;;;;;;1.20;0.90;;;;;;;;;;5030734;28;20624;-67
2023/10/25 15:05:52;;;;;;;0.63;0.63;;;;;;;;;;5028849;28;20251;-67
2023/10/25 15:08:20;;;;;;;1.50;1.00;;;;;;;;;;5029867;28;20196;-66
2023/10/25 15:10:49;;;;;;;1.17;0.70;;;;;;;;;;5028806;28;20208;-66
2023/10/25 15:13:17;;;;;;;2.40;0.80;;;;;;;;;;5021026;28;20230;-66
2023/10/25 15:15:45;;;;;;;1.60;0.97;;;;;;;;;;5022994;28;20222;-66
2023/10/25 15:18:13;;;;;;;2.30;1.17;;;;;;;;;;5030199;28;20216;-66
2023/10/25 15:20:43;;;;;;;0.87;0.80;;;;;;;;;;5020393;28;20674;-66
2023/10/25 15:23:11;;;;;;;0.93;0.90;;;;;;;;;;5020610;28;20210;-66
2023/10/25 15:25:41;;;;;;;2.27;0.80;;;;;;;;;;5020720;28;20232;-66